Mission Valley, Texas
Current Conditions -  °F | °C
As of 4:51 AM on Monday 20 Oct 2014 (Local Time) from KVCT Reporting Station
Haze Haze  
Wind Chill: 66°   Ceiling: Unl
Heat Index: 66°   Visibility: 4mi
Dew Point: 65°   Wind: 6mph
Humidity: 96%   Direction: 50°NE
Pressure: 29.97"   Gusts: NA
Location:  28.7094°N, 97.0351°W
Report Text: KVCT 200951Z AUTO 05005KT 4SM BR CLR 19/18 A2997 RMK AO2 SLP148 T01890183
Loading
Personal Weather Stations






























Interactive Weather Map
Tropical Storm Tracking
New forecast layout! Learn more

10-Day Weather Forecast

Advertisements
Track Severe Weather on mobile